createdAt,value
2018-06-17T00:00:01.728Z,93.61
2018-06-17T00:05:01.537Z,93.61
2018-06-17T00:10:01.569Z,92.93
2018-06-17T00:15:01.498Z,92.93
2018-06-17T00:21:01.592Z,92.71
2018-06-17T00:26:02.572Z,92.71
2018-06-17T00:31:01.566Z,91.49
2018-06-17T00:36:01.516Z,91.49
2018-06-17T00:41:01.616Z,93.91
2018-06-17T00:46:01.521Z,93.91
2018-06-17T00:51:01.595Z,94.62
2018-06-17T00:56:01.517Z,94.62
2018-06-17T01:11:01.695Z,94.79
2018-06-17T01:16:01.514Z,94.79
2018-06-17T01:31:01.687Z,95.56
2018-06-17T01:46:01.510Z,96.13
2018-06-17T01:56:01.545Z,96.11
2018-06-17T02:11:01.492Z,95.71
2018-06-17T02:26:01.567Z,95.52
2018-06-17T02:41:01.540Z,94.59
2018-06-17T02:46:01.520Z,94.59
2018-06-17T02:56:01.503Z,95.59
2018-06-17T03:12:01.446Z,96.45
2018-06-17T03:27:01.495Z,96.49
2018-06-17T03:42:01.498Z,95.99
2018-06-17T03:52:01.518Z,95.65
2018-06-17T04:07:01.489Z,95.10
2018-06-17T04:22:01.506Z,95.00
2018-06-17T04:27:01.539Z,95.00
2018-06-17T04:32:01.524Z,95.38
2018-06-17T04:37:01.541Z,95.38
2018-06-17T04:42:01.483Z,94.01
2018-06-17T04:47:01.513Z,94.01
2018-06-17T04:52:01.488Z,93.73
2018-06-17T04:57:01.568Z,93.73
2018-06-17T05:02:01.523Z,93.45
2018-06-17T05:07:01.501Z,93.45
2018-06-17T05:17:01.535Z,94.61
2018-06-17T05:32:01.396Z,92.65
2018-06-17T05:37:01.512Z,92.65
2018-06-17T05:42:01.561Z,89.76
2018-06-17T05:47:01.619Z,89.76
2018-06-17T05:52:01.743Z,90.05
2018-06-17T06:02:01.367Z,88.63
2018-06-17T06:07:01.621Z,88.63
2018-06-17T06:22:01.673Z,85.07
2018-06-17T06:33:01.712Z,83.79
2018-06-17T06:38:02.619Z,81.87
2018-06-17T06:43:01.596Z,81.87
2018-06-17T06:58:01.668Z,80.39
2018-06-17T07:08:01.677Z,79.44
2018-06-17T07:13:01.505Z,79.44
2018-06-17T07:18:01.568Z,77.46
2018-06-17T07:23:01.563Z,77.46
2018-06-17T07:28:01.685Z,78.39
2018-06-17T07:33:01.596Z,78.39
2018-06-17T07:38:01.604Z,75.48
2018-06-17T07:43:01.574Z,75.48
2018-06-17T07:48:01.605Z,74.07
2018-06-17T07:53:01.529Z,74.07
2018-06-17T07:58:01.897Z,71.93
2018-06-17T08:03:01.669Z,71.93
2018-06-17T08:08:01.675Z,76.08
2018-06-17T08:13:01.537Z,76.08
2018-06-17T08:23:01.769Z,71.33
2018-06-17T08:33:01.483Z,73.34
2018-06-17T08:43:01.596Z,73.50
2018-06-17T08:48:01.643Z,73.44
2018-06-17T08:53:01.492Z,73.44
2018-06-17T08:58:01.845Z,73.04
2018-06-17T09:03:01.686Z,73.04
2018-06-17T09:08:01.772Z,70.78
2018-06-17T09:18:01.449Z,71.32
2018-06-17T09:33:01.395Z,70.22
2018-06-17T09:43:01.668Z,70.54
2018-06-17T09:48:01.611Z,70.00
2018-06-17T10:03:01.354Z,72.58
2018-06-17T10:13:01.649Z,70.81
2018-06-17T10:18:01.661Z,67.77
2018-06-17T10:23:01.556Z,67.77
2018-06-17T10:33:01.316Z,70.84
2018-06-17T10:38:01.709Z,79.05
2018-06-17T10:43:01.535Z,79.05
2018-06-17T10:48:01.557Z,84.09
2018-06-17T10:53:01.697Z,84.09
2018-06-17T10:58:01.676Z,84.99
2018-06-17T11:13:01.746Z,84.00
2018-06-17T11:18:01.669Z,80.68
2018-06-17T11:28:01.564Z,74.11
2018-06-17T11:33:01.514Z,74.11
2018-06-17T11:38:01.566Z,70.58
2018-06-17T11:43:01.542Z,70.58
2018-06-17T11:48:01.676Z,68.87
2018-06-17T11:53:01.553Z,68.87
2018-06-17T11:58:01.595Z,67.36
2018-06-17T12:03:01.496Z,67.36
2018-06-17T12:08:01.649Z,63.42
2018-06-17T12:13:01.623Z,63.42
2018-06-17T12:18:01.669Z,60.44
2018-06-17T12:23:01.527Z,60.44
2018-06-17T12:28:01.659Z,60.56
2018-06-17T12:33:01.537Z,60.56
2018-06-17T12:38:01.527Z,60.71
2018-06-17T12:43:01.513Z,60.71
2018-06-17T12:48:01.558Z,59.11
2018-06-17T12:53:01.582Z,59.11
2018-06-17T12:58:01.680Z,59.95
2018-06-17T13:03:01.577Z,59.95
2018-06-17T13:08:01.631Z,56.95
2018-06-17T13:13:01.568Z,56.95
2018-06-17T13:18:01.574Z,51.42
2018-06-17T13:23:01.605Z,51.42
2018-06-17T13:28:01.701Z,51.16
2018-06-17T13:33:01.722Z,51.16
2018-06-17T13:39:01.608Z,52.36
2018-06-17T13:49:01.423Z,52.97
2018-06-17T13:54:01.555Z,52.97
2018-06-17T13:59:01.667Z,51.60
2018-06-17T14:09:01.632Z,51.07
2018-06-17T14:14:01.532Z,51.07
2018-06-17T14:19:01.659Z,51.63
2018-06-17T14:24:01.624Z,51.63
2018-06-17T14:34:01.413Z,52.48
2018-06-17T14:39:01.700Z,53.57
2018-06-17T14:44:01.593Z,53.57
2018-06-17T14:59:01.592Z,53.66
2018-06-17T15:04:01.570Z,53.66
2018-06-17T15:14:01.639Z,51.78
2018-06-17T15:29:01.636Z,49.73
2018-06-17T15:34:01.596Z,49.73
2018-06-17T15:39:01.574Z,50.08
2018-06-17T15:44:01.765Z,50.08
2018-06-17T15:49:01.664Z,49.08
2018-06-17T15:59:01.656Z,48.98
2018-06-17T16:04:01.511Z,48.98
2018-06-17T16:09:01.557Z,45.33
2018-06-17T16:14:01.536Z,45.33
2018-06-17T16:19:01.587Z,52.58
2018-06-17T16:25:01.725Z,52.58
2018-06-17T16:30:01.740Z,53.99
2018-06-17T16:35:01.662Z,53.99
2018-06-17T16:40:01.837Z,53.31
2018-06-17T16:45:01.653Z,53.31
2018-06-17T16:50:01.687Z,54.99
2018-06-17T16:55:01.582Z,54.99
2018-06-17T17:00:01.655Z,55.65
2018-06-17T17:10:01.799Z,54.95
2018-06-17T17:15:01.799Z,54.95
2018-06-17T17:30:01.771Z,54.95
2018-06-17T17:45:01.689Z,56.02
2018-06-17T17:50:01.632Z,56.30
2018-06-17T17:55:01.653Z,56.30
2018-06-17T18:00:01.727Z,57.11
2018-06-17T18:10:01.643Z,58.15
2018-06-17T18:15:01.632Z,58.15
2018-06-17T18:20:01.697Z,59.10
2018-06-17T18:25:01.777Z,59.10
2018-06-17T18:30:01.670Z,61.05
2018-06-17T18:40:01.679Z,61.25
2018-06-17T18:45:01.649Z,61.25
2018-06-17T18:50:01.664Z,63.56
2018-06-17T19:00:01.679Z,63.86
2018-06-17T19:10:01.658Z,65.60
2018-06-17T19:15:01.693Z,65.60
2018-06-17T19:20:01.690Z,67.84
2018-06-17T19:25:01.660Z,67.84
2018-06-17T19:30:01.671Z,69.09
2018-06-17T19:35:01.666Z,69.09
2018-06-17T19:40:01.668Z,71.33
2018-06-17T19:45:01.635Z,71.33
2018-06-17T19:50:01.741Z,72.76
2018-06-17T19:55:01.644Z,72.76
2018-06-17T20:00:01.647Z,74.89
2018-06-17T20:05:01.684Z,74.89
2018-06-17T20:10:01.690Z,77.34
2018-06-17T20:15:01.686Z,77.34
2018-06-17T20:20:01.660Z,78.83
2018-06-17T20:25:01.688Z,78.83
2018-06-17T20:30:01.615Z,79.06
2018-06-17T20:35:01.699Z,79.06
2018-06-17T20:40:01.686Z,79.82
2018-06-17T20:45:01.678Z,79.82
2018-06-17T20:50:01.648Z,80.54
2018-06-17T21:00:01.690Z,80.89
2018-06-17T21:10:01.672Z,82.19
2018-06-17T21:15:01.634Z,82.19
2018-06-17T21:20:01.741Z,82.81
2018-06-17T21:30:01.671Z,83.15
2018-06-17T21:40:01.531Z,83.27
2018-06-17T21:45:01.550Z,83.27
2018-06-17T21:50:01.479Z,84.49
2018-06-17T21:55:01.574Z,84.49
2018-06-17T22:00:01.581Z,85.28
2018-06-17T22:05:01.530Z,85.28
2018-06-17T22:10:01.567Z,86.36
2018-06-17T22:15:01.546Z,86.36
2018-06-17T22:20:01.620Z,86.38
2018-06-17T22:30:01.673Z,86.10
2018-06-17T22:45:01.641Z,86.54
2018-06-17T22:55:01.661Z,86.90
2018-06-17T23:00:01.658Z,87.74
2018-06-17T23:10:01.714Z,87.38
2018-06-17T23:15:01.615Z,87.38
2018-06-17T23:30:01.686Z,87.93
2018-06-17T23:40:01.581Z,87.59
2018-06-17T23:45:01.521Z,87.59
2018-06-17T23:50:01.750Z,87.60
